Time;durP1;ratioP1;P1;durP2;ratioP2;P2;SDS_P1;SDS_P2;PMS_P1;PMS_P2;Temp;Humidity;BMP_temperature;BMP_pressure;BME280_temperature;BME280_humidity;BME280_pressure;Samples;Min_cycle;Max_cycle;Signal;HPM_P1;HPM_P2
2021/07/05 00:02:23;;;;;;;3.50;3.20;;;;;;;18.04;100.00;95715.47;5012386;28;20581;-81
2021/07/05 00:04:50;;;;;;;4.83;3.43;;;;;;;18.32;100.00;95737.31;5012154;28;20269;-81
2021/07/05 00:07:20;;;;;;;6.77;3.50;;;;;;;18.23;100.00;95719.00;5011926;28;20630;-81
2021/07/05 00:09:47;;;;;;;3.60;3.30;;;;;;;18.14;100.00;95700.88;5012244;28;20199;-82
2021/07/05 00:12:15;;;;;;;4.07;3.40;;;;;;;18.20;100.00;95690.19;5012021;28;20231;-81
2021/07/05 00:14:42;;;;;;;5.30;3.53;;;;;;;18.25;100.00;95690.34;5011878;28;20227;-83
2021/07/05 00:17:09;;;;;;;3.80;3.50;;;;;;;18.30;100.00;95677.19;5012115;28;20722;-83
2021/07/05 00:19:38;;;;;;;3.50;3.07;;;;;;;18.07;100.00;95666.38;5012001;28;20261;-82
2021/07/05 00:22:06;;;;;;;4.73;3.53;;;;;;;18.07;100.00;95677.00;5012242;28;20200;-82
2021/07/05 00:24:33;;;;;;;3.63;3.33;;;;;;;18.09;100.00;95674.94;5011700;28;20233;-82
2021/07/05 00:27:00;;;;;;;3.87;3.57;;;;;;;18.00;100.00;95687.69;5011914;28;20269;-83
2021/07/05 00:29:28;;;;;;;4.37;3.97;;;;;;;17.90;100.00;95682.06;5011861;28;20204;-83
2021/07/05 00:31:55;;;;;;;5.33;3.60;;;;;;;17.81;100.00;95689.53;5012031;28;20200;-83
2021/07/05 00:34:22;;;;;;;3.67;3.37;;;;;;;17.80;100.00;95685.25;5011516;28;20789;-82
2021/07/05 00:36:51;;;;;;;4.53;4.13;;;;;;;17.84;100.00;95709.56;5011977;28;20285;-82
2021/07/05 00:39:19;;;;;;;5.23;4.00;;;;;;;17.94;100.00;95698.41;5011671;28;20191;-82
2021/07/05 00:41:46;;;;;;;3.63;3.33;;;;;;;17.93;100.00;95708.22;5011913;28;20746;-82
2021/07/05 00:44:13;;;;;;;6.10;3.90;;;;;;;17.92;100.00;95711.13;5011673;28;20222;-83
2021/07/05 00:46:41;;;;;;;3.87;3.50;;;;;;;17.96;100.00;95701.66;5011903;28;20290;-82
2021/07/05 00:49:08;;;;;;;3.80;3.50;;;;;;;17.89;100.00;95701.72;5011747;28;20199;-82
2021/07/05 00:51:35;;;;;;;3.80;3.50;;;;;;;17.83;100.00;95710.56;5011962;28;20258;-82
2021/07/05 00:54:04;;;;;;;8.03;4.60;;;;;;;17.77;100.00;95706.94;5011568;28;20285;-83
2021/07/05 00:56:32;;;;;;;5.17;3.67;;;;;;;18.03;100.00;95705.06;5011731;28;20623;-82
2021/07/05 00:59:00;;;;;;;4.20;3.43;;;;;;;17.96;100.00;95720.28;5011987;28;20253;-82
2021/07/05 01:01:27;;;;;;;4.13;3.80;;;;;;;17.96;100.00;95712.28;5015650;28;20601;-83
2021/07/05 01:03:55;;;;;;;4.20;3.67;;;;;;;18.01;100.00;95715.09;5015264;28;20203;-82
2021/07/05 01:06:22;;;;;;;4.50;4.10;;;;;;;18.01;100.00;95721.25;5014877;28;20196;-82
2021/07/05 01:08:49;;;;;;;3.73;3.33;;;;;;;17.99;100.00;95701.22;5015276;28;20191;-82
2021/07/05 01:11:20;;;;;;;3.80;3.37;;;;;;;17.97;100.00;95690.78;5015291;28;20608;-83
2021/07/05 01:13:48;;;;;;;4.07;3.63;;;;;;;18.04;100.00;95686.22;5014698;28;20242;-82
2021/07/05 01:16:16;;;;;;;3.60;3.30;;;;;;;18.16;100.00;95696.97;5015252;28;20386;-83
2021/07/05 01:18:43;;;;;;;3.70;3.40;;;;;;;17.98;100.00;95688.97;5015003;28;20243;-83
2021/07/05 01:21:12;;;;;;;4.47;3.90;;;;;;;17.87;100.00;95676.38;5014886;28;20239;-83
2021/07/05 01:23:39;;;;;;;3.93;3.63;;;;;;;17.80;100.00;95685.25;5014698;28;20286;-82
2021/07/05 01:26:07;;;;;;;4.03;3.63;;;;;;;17.76;100.00;95689.34;5014453;28;20199;-82
2021/07/05 01:28:35;;;;;;;4.03;3.73;;;;;;;17.78;100.00;95699.78;5014768;28;20199;-82
2021/07/05 01:31:03;;;;;;;4.00;3.60;;;;;;;17.71;100.00;95683.84;5015071;28;20286;-82
2021/07/05 01:33:30;;;;;;;4.47;3.63;;;;;;;17.63;100.00;95686.78;5014328;28;20203;-82
2021/07/05 01:35:57;;;;;;;4.37;3.70;;;;;;;17.59;100.00;95682.91;5014789;28;20606;-82
2021/07/05 01:38:27;;;;;;;4.37;3.23;;;;;;;17.49;100.00;95670.13;5014757;28;20237;-83
2021/07/05 01:40:56;;;;;;;8.93;4.53;;;;;;;17.82;100.00;95677.84;5013943;28;20203;-82
2021/07/05 01:43:24;;;;;;;3.70;3.40;;;;;;;17.71;100.00;95662.59;5014458;28;20199;-83
2021/07/05 01:45:52;;;;;;;4.70;4.30;;;;;;;17.61;100.00;95650.84;5014513;28;20206;-82
2021/07/05 01:48:20;;;;;;;3.53;3.33;;;;;;;17.66;100.00;95650.97;5014376;28;20257;-82
2021/07/05 01:50:47;;;;;;;4.30;3.90;;;;;;;17.85;100.00;95647.38;5014451;28;20242;-83
2021/07/05 01:53:15;;;;;;;5.00;4.30;;;;;;;17.85;100.00;95642.06;5014012;28;20195;-82
2021/07/05 01:55:44;;;;;;;4.17;3.77;;;;;;;17.69;100.00;95647.88;5014092;28;20309;-82
2021/07/05 01:58:11;;;;;;;4.63;3.13;;;;;;;17.59;100.00;95633.28;5014221;28;20235;-83
2021/07/05 02:00:43;;;;;;;4.33;3.40;;;;;;;17.78;100.00;95633.31;5014071;28;20203;-83
2021/07/05 02:03:11;;;;;;;3.80;3.50;;;;;;;17.84;100.00;95645.75;5013881;28;20188;-82
2021/07/05 02:05:39;;;;;;;4.00;3.70;;;;;;;17.88;100.00;95635.50;5013854;28;20238;-82
2021/07/05 02:08:07;;;;;;;3.73;3.40;;;;;;;17.45;100.00;95652.97;5014554;28;20302;-82
2021/07/05 02:10:36;;;;;;;5.23;4.00;;;;;;;17.67;100.00;95650.78;5013613;28;20298;-82
2021/07/05 02:13:08;;;;;;;4.77;4.33;;;;;;;17.71;100.00;95640.53;5013631;28;20243;-82
2021/07/05 02:15:36;;;;;;;4.00;3.70;;;;;;;17.67;100.00;95645.47;5013571;28;20305;-82
2021/07/05 02:18:03;;;;;;;4.10;3.77;;;;;;;17.48;100.00;95635.81;5013811;28;20206;-82
2021/07/05 02:20:31;;;;;;;4.63;3.20;;;;;;;17.67;100.00;95645.47;5013895;28;20253;-82
2021/07/05 02:22:59;;;;;;;4.37;3.97;;;;;;;17.77;100.00;95645.00;5013770;28;20583;-82
2021/07/05 02:25:28;;;;;;;4.37;4.00;;;;;;;17.65;100.00;95642.19;5013497;28;20199;-82
2021/07/05 02:27:56;;;;;;;4.33;3.93;;;;;;;17.51;100.00;95635.38;5013759;28;20702;-82
2021/07/05 02:30:27;;;;;;;4.30;3.87;;;;;;;17.62;100.00;95647.94;5013373;28;20200;-82
2021/07/05 02:32:55;;;;;;;3.90;3.60;;;;;;;17.55;100.00;95634.72;5013373;28;20199;-82
2021/07/05 02:35:24;;;;;;;4.93;4.30;;;;;;;17.39;100.00;95626.47;5013331;28;20227;-82
2021/07/05 02:37:54;;;;;;;4.60;3.57;;;;;;;17.18;100.00;95636.44;5013589;28;20200;-82
2021/07/05 02:40:23;;;;;;;3.77;3.47;;;;;;;17.16;100.00;95646.47;5013176;28;20259;-83
2021/07/05 02:42:51;;;;;;;4.60;4.23;;;;;;;17.11;100.00;95640.97;5013149;28;20199;-83
2021/07/05 02:45:22;;;;;;;4.10;3.80;;;;;;;17.16;100.00;95643.81;5013019;28;20195;-83
2021/07/05 02:47:53;;;;;;;4.50;4.10;;;;;;;17.19;100.00;95632.75;5013771;28;20198;-83
2021/07/05 02:50:21;;;;;;;4.00;3.70;;;;;;;17.22;100.00;95605.78;5013521;28;20191;-83
2021/07/05 02:52:49;;;;;;;4.23;3.93;;;;;;;17.37;100.00;95616.06;5012995;28;20199;-83
2021/07/05 02:55:16;;;;;;;3.70;3.40;;;;;;;17.51;100.00;95616.78;5013134;28;20310;-83
2021/07/05 02:57:44;;;;;;;5.43;3.87;;;;;;;17.39;100.00;95605.22;5013079;28;20375;-83
2021/07/05 03:00:14;;;;;;;4.50;4.10;;;;;;;17.38;100.00;95587.66;5013032;28;20211;-83
2021/07/05 03:02:42;;;;;;;4.77;4.37;;;;;;;17.38;100.00;95625.66;5013127;28;20207;-82
2021/07/05 03:05:12;;;;;;;4.93;4.17;;;;;;;17.04;100.00;95616.31;5012508;28;20257;-82
2021/07/05 03:07:40;;;;;;;3.67;3.37;;;;;;;17.10;100.00;95613.59;5013025;28;20237;-83
2021/07/05 03:10:09;;;;;;;4.67;3.67;;;;;;;17.14;100.00;95598.06;5012719;28;20262;-83
2021/07/05 03:12:37;;;;;;;7.47;4.27;;;;;;;17.33;100.00;95586.47;5012680;28;20245;-83
2021/07/05 03:15:05;;;;;;;5.13;4.63;;;;;;;17.38;100.00;95591.13;5012570;28;20224;-83
2021/07/05 03:17:33;;;;;;;4.53;4.23;;;;;;;17.11;100.00;95594.00;5012867;28;20200;-83
2021/07/05 03:20:00;;;;;;;6.00;4.00;;;;;;;17.04;100.00;95553.44;5012590;28;20758;-83
2021/07/05 03:22:29;;;;;;;4.67;4.27;;;;;;;17.00;100.00;95544.25;5012083;28;20667;-83
2021/07/05 03:24:56;;;;;;;7.03;4.00;;;;;;;16.95;100.00;95528.16;5011681;28;20199;-84
2021/07/05 03:27:28;;;;;;;5.10;4.40;;;;;;;17.06;100.00;95561.97;5012328;28;20294;-82
2021/07/05 03:29:56;;;;;;;4.13;3.80;;;;;;;17.10;100.00;95567.66;5012662;28;20191;-83
2021/07/05 03:32:24;;;;;;;4.83;4.30;;;;;;;17.13;100.00;95558.47;5012627;28;20238;-83
2021/07/05 03:34:51;;;;;;;5.70;4.43;;;;;;;17.13;100.00;95547.84;5012290;28;20227;-83
2021/07/05 03:37:19;;;;;;;4.63;4.23;;;;;;;17.09;100.00;95508.44;5012271;28;20245;-83
2021/07/05 03:39:48;;;;;;;5.37;4.40;;;;;;;16.85;100.00;95494.16;5012310;28;20199;-83
2021/07/05 03:42:15;;;;;;;4.60;4.10;;;;;;;16.96;100.00;95489.16;5012669;28;20290;-83
2021/07/05 03:44:42;;;;;;;4.90;4.43;;;;;;;16.87;100.00;95497.41;5012506;28;20276;-83
2021/07/05 03:47:10;;;;;;;3.90;3.60;;;;;;;17.04;100.00;95512.78;5012389;28;20199;-83
2021/07/05 03:49:37;;;;;;;4.30;3.90;;;;;;;17.07;100.00;95486.59;5012467;28;20199;-83
2021/07/05 03:52:05;;;;;;;4.50;4.10;;;;;;;17.14;100.00;95486.53;5012334;28;20662;-83
2021/07/05 03:54:33;;;;;;;4.13;3.83;;;;;;;17.03;100.00;95474.78;5011951;28;20289;-82
2021/07/05 03:57:01;;;;;;;4.47;4.03;;;;;;;16.93;100.00;95497.56;5012517;28;20253;-83
2021/07/05 03:59:29;;;;;;;4.13;3.80;;;;;;;16.92;100.00;95467.56;5012363;28;20272;-82
2021/07/05 04:01:56;;;;;;;4.60;4.20;;;;;;;17.03;100.00;95479.28;5005887;28;20206;-83
2021/07/05 04:04:24;;;;;;;4.40;4.00;;;;;;;17.10;100.00;95470.22;5011279;28;20206;-82
2021/07/05 04:06:52;;;;;;;4.93;4.53;;;;;;;17.19;100.00;95472.63;5012302;28;20705;-82
2021/07/05 04:09:21;;;;;;;7.40;4.53;;;;;;;17.11;100.00;95492.28;5012001;28;20202;-82
2021/07/05 04:11:49;;;;;;;4.57;4.17;;;;;;;17.15;100.00;95492.69;5011755;28;20235;-82
2021/07/05 04:14:17;;;;;;;4.57;3.97;;;;;;;17.18;100.00;95485.09;5010552;28;20191;-82
2021/07/05 04:16:45;;;;;;;4.70;4.30;;;;;;;17.22;100.00;95480.97;5010740;28;20223;-83
2021/07/05 04:19:12;;;;;;;3.97;3.67;;;;;;;17.26;100.00;95468.06;5010885;28;20703;-82
2021/07/05 04:21:39;;;;;;;4.23;3.93;;;;;;;17.30;100.00;95475.34;5011002;28;20226;-82
2021/07/05 04:24:07;;;;;;;4.97;4.57;;;;;;;17.28;100.00;95479.25;5010895;28;20639;-82
2021/07/05 04:26:34;;;;;;;4.83;4.40;;;;;;;17.42;100.00;95461.34;5010791;28;20598;-83
2021/07/05 04:29:01;;;;;;;4.90;4.50;;;;;;;17.22;100.00;95457.06;5010489;28;20241;-83
2021/07/05 04:31:30;;;;;;;4.17;3.87;;;;;;;17.28;100.00;95466.81;5011229;28;20230;-83
2021/07/05 04:33:58;;;;;;;4.87;3.63;;;;;;;17.22;100.00;95451.75;5006903;28;21748;-83
2021/07/05 04:36:25;;;;;;;5.37;4.67;;;;;;;17.04;100.00;95409.22;5003583;28;20222;-81
2021/07/05 04:38:52;;;;;;;5.10;4.60;;;;;;;16.98;100.00;95388.91;5005200;28;20207;-80
2021/07/05 04:41:20;;;;;;;4.73;4.33;;;;;;;17.17;100.00;95392.38;5011651;28;20196;-81
2021/07/05 04:43:48;;;;;;;4.33;3.93;;;;;;;17.34;100.00;95386.25;5005143;28;20208;-81
2021/07/05 04:46:17;;;;;;;4.70;4.30;;;;;;;17.40;100.00;95389.84;5012472;28;20197;-80
2021/07/05 04:48:46;;;;;;;5.03;4.63;;;;;;;17.38;100.00;95401.72;5009376;28;20199;-80
2021/07/05 04:51:15;;;;;;;4.60;4.00;;;;;;;17.43;100.00;95399.25;5003316;28;20210;-80
2021/07/05 04:53:42;;;;;;;5.90;4.73;;;;;;;17.44;100.00;95379.59;5009670;28;20257;-80
2021/07/05 04:56:12;;;;;;;5.10;4.60;;;;;;;17.39;100.00;95355.53;5002299;28;20713;-80
2021/07/05 04:58:40;;;;;;;4.60;4.20;;;;;;;17.41;100.00;95334.88;4998983;28;20681;-80
2021/07/05 05:01:07;;;;;;;4.60;4.10;;;;;;;17.47;100.00;95347.28;5006020;28;20295;-81
2021/07/05 05:03:35;;;;;;;4.47;4.03;;;;;;;17.54;100.00;95348.00;4996936;28;20258;-80
2021/07/05 05:06:04;;;;;;;7.10;4.17;;;;;;;17.59;100.00;95330.38;5011883;28;20234;-80
2021/07/05 05:08:31;;;;;;;7.90;4.60;;;;;;;18.04;100.00;95342.41;5000085;28;20656;-81
2021/07/05 05:10:59;;;;;;;5.10;4.70;;;;;;;18.12;100.00;95350.09;5001078;28;20258;-81
2021/07/05 05:13:28;;;;;;;10.07;4.93;;;;;;;18.18;100.00;95308.44;5013907;28;20273;-81
2021/07/05 05:15:56;;;;;;;4.77;4.37;;;;;;;18.29;100.00;95292.53;5005062;28;20231;-80
2021/07/05 05:18:23;;;;;;;4.57;4.10;;;;;;;18.46;100.00;95286.50;5010114;28;20234;-81
2021/07/05 05:20:50;;;;;;;9.27;5.30;;;;;;;18.58;100.00;95321.09;5009145;28;20207;-80
2021/07/05 05:23:19;;;;;;;5.37;4.27;;;;;;;18.68;100.00;95331.97;5014066;28;20204;-81
2021/07/05 05:25:46;;;;;;;4.97;4.43;;;;;;;18.85;100.00;95345.44;5011822;28;20196;-80
2021/07/05 05:28:14;;;;;;;7.47;5.70;;;;;;;19.06;100.00;95398.06;5006877;28;20204;-80
2021/07/05 05:30:41;;;;;;;10.30;5.70;;;;;;;19.34;100.00;95461.28;5001408;28;20711;-80
2021/07/05 05:33:08;;;;;;;9.17;5.13;;;;;;;19.61;100.00;95504.25;4995111;28;20204;-81
2021/07/05 05:35:36;;;;;;;7.80;5.70;;;;;;;19.94;100.00;95516.16;5006339;28;20227;-81
2021/07/05 05:38:03;;;;;;;6.93;4.40;;;;;;;20.08;100.00;95503.38;5000518;28;20200;-81
2021/07/05 05:40:32;;;;;;;10.40;5.77;;;;;;;20.28;100.00;95497.63;5005366;28;20235;-81
2021/07/05 05:42:59;;;;;;;13.27;5.10;;;;;;;20.44;100.00;95547.56;5002014;28;20655;-81
2021/07/05 05:45:27;;;;;;;8.17;4.23;;;;;;;20.72;100.00;95533.44;5005601;28;20232;-81
2021/07/05 05:47:54;;;;;;;6.37;4.80;;;;;;;20.97;100.00;95562.44;5004670;28;20208;-80
2021/07/05 05:50:22;;;;;;;6.03;4.40;;;;;;;21.16;100.00;95591.59;5004216;28;20279;-80
2021/07/05 05:52:49;;;;;;;7.30;4.63;;;;;;;21.26;100.00;95626.53;5010387;28;20210;-80
2021/07/05 05:55:17;;;;;;;8.53;5.00;;;;;;;21.42;100.00;95649.81;5009164;28;20680;-79
2021/07/05 05:57:45;;;;;;;5.93;4.50;;;;;;;21.53;100.00;95653.47;5013199;28;20322;-80
2021/07/05 06:00:18;;;;;;;6.80;5.47;;;;;;;21.80;100.00;95646.41;5011425;28;20195;-80
2021/07/05 06:02:45;;;;;;;4.70;4.30;;;;;;;22.04;100.00;95647.03;5012438;28;20207;-80
2021/07/05 06:05:13;;;;;;;4.43;4.03;;;;;;;22.18;100.00;95676.16;5010394;28;20672;-80
2021/07/05 06:07:42;;;;;;;5.30;4.63;;;;;;;22.33;100.00;95678.25;4999716;28;20218;-80
2021/07/05 06:10:10;;;;;;;4.60;4.20;;;;;;;22.52;100.00;95677.72;4994459;28;20211;-81
2021/07/05 06:12:38;;;;;;;5.87;4.10;;;;;;;22.67;100.00;95709.22;5002540;28;20231;-80
2021/07/05 06:15:08;;;;;;;4.87;4.33;;;;;;;22.87;100.00;95714.03;5013012;28;20743;-81
2021/07/05 06:17:36;;;;;;;4.77;4.37;;;;;;;23.06;100.00;95716.44;5012143;28;20430;-80
2021/07/05 06:20:04;;;;;;;4.67;4.27;;;;;;;23.16;100.00;95722.72;5012208;28;20206;-81
2021/07/05 06:22:39;;;;;;;4.30;3.90;;;;;;;23.41;100.00;95735.56;5013581;28;20573;-80
2021/07/05 06:25:08;;;;;;;4.67;3.73;;;;;;;23.43;100.00;95743.38;5013364;28;20191;-81
2021/07/05 06:27:35;;;;;;;5.40;4.67;;;;;;;23.80;100.00;95731.97;5013705;28;20195;-81
2021/07/05 06:30:03;;;;;;;5.50;3.70;;;;;;;23.80;100.00;95764.97;5013518;28;20195;-81
2021/07/05 06:32:31;;;;;;;8.83;3.93;;;;;;;23.83;100.00;95769.00;5013819;28;20278;-80
2021/07/05 06:34:59;;;;;;;5.93;3.47;;;;;;;24.08;100.00;95771.13;5013280;28;20211;-81
2021/07/05 06:37:26;;;;;;;3.80;3.50;;;;;;;24.09;100.00;95788.84;5013540;28;20255;-81
2021/07/05 06:39:53;;;;;;;6.57;3.60;;;;;;;24.03;100.00;95792.53;5013493;28;20195;-81
2021/07/05 06:42:21;;;;;;;4.10;3.80;;;;;;;24.28;100.00;95781.19;5013413;28;20564;-81
2021/07/05 06:44:48;;;;;;;4.53;4.13;;;;;;;24.38;100.00;95782.09;5013429;28;20260;-81
2021/07/05 06:47:16;;;;;;;3.80;3.50;;;;;;;24.54;100.00;95801.84;5013234;28;20199;-81
2021/07/05 06:49:45;;;;;;;3.97;3.53;;;;;;;24.82;100.00;95787.25;5013331;28;20206;-81
2021/07/05 06:52:12;;;;;;;4.37;4.07;;;;;;;25.23;100.00;95797.44;5013182;28;20200;-81
2021/07/05 06:54:40;;;;;;;4.27;3.97;;;;;;;25.18;100.00;95805.47;5013136;28;20290;-81
2021/07/05 06:57:28;;;;;;;6.63;3.73;;;;;;;25.18;100.00;95803.56;5012262;28;20255;-81
2021/07/05 06:59:55;;;;;;;3.90;3.60;;;;;;;25.09;100.00;95805.94;5012847;28;20297;-81
2021/07/05 07:02:22;;;;;;;4.20;3.40;;;;;;;25.51;100.00;95809.63;5012855;28;20684;-81
2021/07/05 07:04:53;;;;;;;3.80;3.40;;;;;;;25.70;100.00;95802.72;5012987;28;20206;-81
2021/07/05 07:07:20;;;;;;;7.13;4.07;;;;;;;25.70;100.00;95797.31;5013270;28;20195;-81
2021/07/05 07:09:47;;;;;;;4.13;3.77;;;;;;;25.89;100.00;95794.97;5012781;28;20207;-82
2021/07/05 07:12:15;;;;;;;3.60;3.30;;;;;;;25.80;100.00;95808.13;5011694;28;20262;-81
2021/07/05 07:14:42;;;;;;;3.87;3.57;;;;;;;25.66;100.00;95827.69;5011113;28;20196;-81
2021/07/05 07:17:17;;;;;;;4.20;3.90;;;;;;;25.61;100.00;95815.84;5012563;28;20223;-81
2021/07/05 07:19:44;;;;;;;3.97;3.43;;;;;;;25.61;100.00;95799.72;5012640;28;20191;-81
2021/07/05 07:22:13;;;;;;;4.60;3.90;;;;;;;25.79;100.00;95811.88;5012974;28;20199;-81
2021/07/05 07:24:41;;;;;;;4.73;3.27;;;;;;;25.80;100.00;95821.56;5012319;28;20203;-81
2021/07/05 07:27:09;;;;;;;3.20;3.00;;;;;;;25.71;100.00;95817.78;5012890;28;20795;-81
2021/07/05 07:29:36;;;;;;;3.50;3.20;;;;;;;25.83;100.00;95818.34;5012544;28;20733;-81
2021/07/05 07:32:04;;;;;;;3.83;3.00;;;;;;;25.89;100.00;95815.69;5012620;28;20206;-81
2021/07/05 07:34:31;;;;;;;3.80;3.50;;;;;;;26.01;100.00;95810.84;5012597;28;20203;-82
2021/07/05 07:37:02;;;;;;;3.50;3.30;;;;;;;25.99;100.00;95815.72;5012424;28;20661;-82
2021/07/05 07:39:35;;;;;;;4.30;3.60;;;;;;;25.99;100.00;95813.00;5012375;28;20290;-82
2021/07/05 07:42:02;;;;;;;3.47;3.27;;;;;;;25.81;100.00;95817.81;5012499;28;20198;-82
2021/07/05 07:44:30;;;;;;;3.70;3.37;;;;;;;26.17;100.00;95800.91;5012024;28;20203;-82
2021/07/05 07:46:57;;;;;;;3.23;3.03;;;;;;;26.10;100.00;95806.56;5012917;28;20199;-81
2021/07/05 07:49:25;;;;;;;4.63;3.47;;;;;;;26.25;100.00;95803.84;5012176;28;20253;-81
2021/07/05 07:51:52;;;;;;;4.15;3.70;;;;;;;26.39;100.00;95808.72;5012481;28;20293;-82
2021/07/05 07:54:19;;;;;;;3.67;3.38;;;;;;;26.54;100.00;95806.06;5011861;28;20191;-82
2021/07/05 07:56:48;;;;;;;3.88;3.58;;;;;;;26.52;100.00;95819.78;5012225;28;20262;-82
2021/07/05 07:59:15;;;;;;;4.38;3.97;;;;;;;26.59;100.00;95808.72;5012032;28;20591;-82
2021/07/05 08:01:43;;;;;;;3.92;3.50;;;;;;;26.48;100.00;95809.81;5012228;28;20253;-82
2021/07/05 08:04:10;;;;;;;3.80;3.50;;;;;;;26.26;100.00;95805.50;5011928;28;20207;-81
2021/07/05 08:06:38;;;;;;;4.13;3.65;;;;;;;26.30;100.00;95809.25;5012355;28;20195;-82
2021/07/05 08:09:06;;;;;;;8.18;4.22;;;;;;;26.48;100.00;95809.81;5014508;28;20230;-82
2021/07/05 08:11:34;;;;;;;6.28;3.70;;;;;;;26.42;100.00;95810.88;5016048;28;20226;-81
2021/07/05 08:14:04;;;;;;;7.63;3.95;;;;;;;26.49;100.00;95808.75;5016221;28;20619;-82
2021/07/05 08:16:32;;;;;;;5.32;4.40;;;;;;;26.38;100.00;95810.59;5016454;28;20638;-81
2021/07/05 08:18:59;;;;;;;4.35;3.60;;;;;;;26.44;100.00;95812.22;5016341;28;20283;-82
2021/07/05 08:21:27;;;;;;;6.22;3.58;;;;;;;26.56;100.00;95803.88;5016168;28;20199;-81
2021/07/05 08:23:54;;;;;;;3.70;3.40;;;;;;;26.65;100.00;95793.38;5015841;28;20294;-81
2021/07/05 08:26:22;;;;;;;4.03;3.65;;;;;;;26.52;100.00;95802.81;5015825;28;20196;-81
2021/07/05 08:28:49;;;;;;;6.10;3.50;;;;;;;26.60;100.00;95791.47;5015805;28;20262;-81
2021/07/05 08:31:18;;;;;;;28.27;4.65;;;;;;;26.64;100.00;95794.47;5015917;28;20199;-82
2021/07/05 08:33:47;;;;;;;5.17;4.17;;;;;;;26.58;100.00;95793.66;5015492;28;20204;-82
2021/07/05 08:36:15;;;;;;;4.68;4.28;;;;;;;26.65;100.00;95794.19;5016127;28;20203;-82
2021/07/05 08:38:42;;;;;;;3.90;3.60;;;;;;;26.63;100.00;95787.44;5015575;28;20206;-82
2021/07/05 08:41:09;;;;;;;4.25;3.85;;;;;;;26.77;100.00;95788.47;5015674;28;20203;-82
2021/07/05 08:43:41;;;;;;;4.97;3.78;;;;;;;26.78;100.00;95795.50;5016003;28;20270;-82
2021/07/05 08:46:09;;;;;;;4.88;3.45;;;;;;;26.93;100.00;95790.06;5015380;28;20192;-82
2021/07/05 08:48:41;;;;;;;3.40;3.17;;;;;;;27.04;100.00;95791.66;5015459;28;20237;-82
2021/07/05 08:51:11;;;;;;;6.72;3.95;;;;;;;27.01;100.00;95788.69;5015562;28;20227;-82
2021/07/05 08:53:39;;;;;;;3.78;3.47;;;;;;;27.08;100.00;95794.59;5015473;28;20673;-82
2021/07/05 08:56:06;;;;;;;3.58;3.28;;;;;;;26.96;100.00;95791.41;5015623;28;20275;-82
2021/07/05 08:58:34;;;;;;;5.55;3.53;;;;;;;27.06;100.00;95788.69;5015415;28;20192;-82
2021/07/05 09:01:02;;;;;;;3.72;3.42;;;;;;;27.01;100.00;95788.69;5015363;28;20210;-82
2021/07/05 09:03:31;;;;;;;4.03;3.72;;;;;;;27.15;100.00;95791.66;5015605;28;20261;-82
2021/07/05 09:06:10;;;;;;;3.83;3.55;;;;;;;27.39;100.00;95797.22;5015286;28;20200;-82
2021/07/05 09:08:39;;;;;;;3.85;3.55;;;;;;;27.47;100.00;95793.97;5015168;28;20207;-81
2021/07/05 09:11:08;;;;;;;3.70;3.38;;;;;;;27.59;100.00;95793.63;5015025;28;20208;-82
2021/07/05 09:13:47;;;;;;;3.65;3.40;;;;;;;27.38;100.00;95790.22;5014915;28;20231;-82
2021/07/05 09:16:27;;;;;;;4.00;3.65;;;;;;;27.57;100.00;95793.09;5015146;28;20226;-82
2021/07/05 09:18:55;;;;;;;3.90;3.38;;;;;;;27.69;100.00;95793.56;5015183;28;20230;-82
2021/07/05 09:21:26;;;;;;;3.75;3.45;;;;;;;27.69;100.00;95794.38;5014408;28;20205;-82
2021/07/05 09:24:02;;;;;;;3.63;3.33;;;;;;;27.32;100.00;95788.63;5015085;28;20196;-82
2021/07/05 09:26:36;;;;;;;3.85;3.55;;;;;;;27.82;100.00;95786.78;5014979;28;20301;-82
2021/07/05 09:29:07;;;;;;;3.50;3.30;;;;;;;27.95;100.00;95788.84;5014933;28;20196;-82
2021/07/05 09:31:42;;;;;;;3.55;3.10;;;;;;;28.12;100.00;95783.84;5014793;28;20187;-83
2021/07/05 09:34:18;;;;;;;5.00;3.67;;;;;;;28.34;100.00;95777.22;5014589;28;20206;-82
2021/07/05 09:36:48;;;;;;;5.95;3.58;;;;;;;28.31;100.00;95777.78;5014757;28;20738;-82
2021/07/05 09:39:17;;;;;;;3.92;3.63;;;;;;;28.06;100.00;95774.19;5014830;28;20199;-82
2021/07/05 09:41:45;;;;;;;4.50;4.15;;;;;;;28.00;100.00;95777.22;5014627;28;20558;-82
2021/07/05 09:44:16;;;;;;;4.10;3.78;;;;;;;28.41;100.00;95773.13;5014428;28;20282;-82
2021/07/05 09:46:47;;;;;;;4.80;4.40;;;;;;;28.75;100.00;95783.09;5014560;28;20659;-82
2021/07/05 09:49:18;;;;;;;3.85;3.25;;;;;;;28.49;100.00;95779.81;5014041;28;20274;-82
2021/07/05 09:51:48;;;;;;;5.95;4.55;;;;;;;28.54;100.00;95770.81;5014892;28;20249;-83
2021/07/05 09:54:18;;;;;;;3.92;3.60;;;;;;;28.14;100.00;95778.19;5014082;28;20219;-82
2021/07/05 09:56:46;;;;;;;3.92;3.70;;;;;;;28.30;100.00;95773.44;5014113;28;20750;-83
2021/07/05 09:59:20;;;;;;;4.03;3.45;;;;;;;28.71;100.00;95779.31;5013871;28;20199;-82
2021/07/05 10:01:49;;;;;;;3.95;3.50;;;;;;;28.69;100.00;95770.69;5014369;28;20191;-83
2021/07/05 10:04:23;;;;;;;4.45;3.88;;;;;;;28.72;100.00;95761.22;5014243;28;20199;-82
2021/07/05 10:06:53;;;;;;;4.32;4.03;;;;;;;29.09;100.00;95766.75;5014562;28;20187;-82
2021/07/05 10:09:22;;;;;;;4.20;3.90;;;;;;;29.30;100.00;95772.72;5013713;28;20295;-83
2021/07/05 10:11:50;;;;;;;3.88;3.58;;;;;;;28.98;100.00;95769.84;5013834;28;20767;-83
2021/07/05 10:14:21;;;;;;;4.95;4.05;;;;;;;29.16;100.00;95769.13;5014314;28;20216;-83
2021/07/05 10:16:53;;;;;;;3.78;3.47;;;;;;;29.27;100.00;95769.78;5014200;28;20218;-83
2021/07/05 10:19:20;;;;;;;4.15;3.85;;;;;;;29.34;100.00;95759.44;5013654;28;20187;-83
2021/07/05 10:21:48;;;;;;;4.97;4.45;;;;;;;29.45;100.00;95758.22;5014264;28;20203;-83
2021/07/05 10:24:17;;;;;;;4.00;3.70;;;;;;;29.17;100.00;95754.50;5013780;28;20290;-83
2021/07/05 10:26:45;;;;;;;4.20;3.90;;;;;;;29.22;100.00;95759.06;5013700;28;20203;-83
2021/07/05 10:29:12;;;;;;;5.25;4.13;;;;;;;29.30;100.00;95755.69;5013500;28;20579;-83
2021/07/05 10:31:41;;;;;;;4.07;3.67;;;;;;;29.32;100.00;95753.50;5013515;28;20591;-83
2021/07/05 10:34:10;;;;;;;4.40;4.05;;;;;;;28.89;100.00;95743.44;5013348;28;20203;-83
2021/07/05 10:36:41;;;;;;;3.83;3.53;;;;;;;28.73;100.00;95742.00;5013710;28;20207;-82
2021/07/05 10:39:11;;;;;;;3.97;3.67;;;;;;;29.23;100.00;95747.91;5013430;28;20180;-83
2021/07/05 10:41:42;;;;;;;4.15;3.70;;;;;;;29.43;100.00;95749.56;5013269;28;20192;-83
2021/07/05 10:44:11;;;;;;;4.35;4.05;;;;;;;29.53;100.00;95749.44;5013288;28;20416;-83
2021/07/05 10:46:44;;;;;;;4.90;4.40;;;;;;;29.71;100.00;95744.34;5013339;28;20668;-83
2021/07/05 10:49:50;;;;;;;4.35;4.05;;;;;;;29.93;100.00;95722.91;5013129;28;20187;-83
2021/07/05 10:52:20;;;;;;;4.10;3.80;;;;;;;30.07;100.00;95731.88;5010513;28;20250;-84
2021/07/05 10:54:52;;;;;;;3.65;3.35;;;;;;;30.07;100.00;95731.88;5013397;28;20188;-83
2021/07/05 10:57:45;;;;;;;3.97;3.67;;;;;;;29.77;100.00;95730.44;5013235;28;20246;-83
2021/07/05 11:00:16;;;;;;;4.20;3.90;;;;;;;29.25;100.00;95739.53;5012655;28;20282;-83
2021/07/05 11:02:45;;;;;;;4.72;3.90;;;;;;;29.11;100.00;95736.72;5013253;28;20669;-83
2021/07/05 11:05:38;;;;;;;4.38;4.07;;;;;;;28.52;100.00;95724.38;5012771;28;20203;-83
2021/07/05 11:08:31;;;;;;;4.13;3.70;;;;;;;28.48;100.00;95721.44;5012974;28;20245;-83
2021/07/05 11:11:23;;;;;;;4.13;3.83;;;;;;;28.73;100.00;95724.97;5013254;28;20652;-83
2021/07/05 11:14:13;;;;;;;5.38;4.90;;;;;;;29.09;100.00;95715.34;5012496;28;20235;-83
2021/07/05 11:16:55;;;;;;;4.05;3.78;;;;;;;29.70;100.00;95718.38;5013290;28;20223;-83
2021/07/05 11:19:37;;;;;;;4.47;3.85;;;;;;;29.67;100.00;95718.94;5012666;28;20188;-83
2021/07/05 11:22:09;;;;;;;4.75;4.40;;;;;;;29.65;100.00;95718.44;5012809;28;20227;-83
2021/07/05 11:24:43;;;;;;;4.32;3.92;;;;;;;28.97;100.00;95722.25;5012399;28;20249;-83
2021/07/05 11:27:29;;;;;;;4.43;4.10;;;;;;;28.74;100.00;95721.16;5012769;28;20193;-83
2021/07/05 11:30:25;;;;;;;4.47;3.67;;;;;;;28.87;100.00;95709.66;5012797;28;20619;-83
2021/07/05 11:32:55;;;;;;;4.45;4.13;;;;;;;29.32;100.00;95721.03;5012758;28;20615;-83
2021/07/05 11:35:39;;;;;;;4.45;4.15;;;;;;;29.23;100.00;95717.34;5012628;28;20227;-83